createdAt,value
2022-08-28T00:00:30.760Z,59.86
2022-08-28T00:02:58.259Z,59.70
2022-08-28T00:05:29.894Z,59.53
2022-08-28T00:07:57.526Z,59.58
2022-08-28T00:10:25.991Z,59.61
2022-08-28T00:12:55.666Z,59.46
2022-08-28T00:15:33.803Z,59.60
2022-08-28T00:18:03.616Z,60.00
2022-08-28T00:20:32.899Z,60.38
2022-08-28T00:23:00.827Z,60.33
2022-08-28T00:25:30.429Z,60.14
2022-08-28T00:28:05.305Z,60.22
2022-08-28T00:30:48.280Z,60.35
2022-08-28T00:33:25.282Z,60.33
2022-08-28T00:35:52.529Z,60.43
2022-08-28T00:38:21.819Z,60.62
2022-08-28T00:40:53.334Z,60.74
2022-08-28T00:43:26.515Z,60.66
2022-08-28T00:45:53.274Z,60.73
2022-08-28T00:48:19.781Z,60.91
2022-08-28T00:51:04.882Z,61.05
2022-08-28T00:53:32.981Z,60.96
2022-08-28T00:56:10.212Z,60.68
2022-08-28T00:58:44.923Z,60.69
2022-08-28T01:01:13.621Z,60.96
2022-08-28T01:03:41.489Z,60.84
2022-08-28T01:06:09.158Z,60.53
2022-08-28T01:08:40.666Z,60.28
2022-08-28T01:11:09.785Z,60.00
2022-08-28T01:13:41.469Z,59.66
2022-08-28T01:16:09.420Z,59.49
2022-08-28T01:18:35.955Z,59.43
2022-08-28T01:21:27.774Z,59.22
2022-08-28T01:24:10.210Z,59.41
2022-08-28T01:26:38.271Z,59.56
2022-08-28T01:29:05.524Z,59.27
2022-08-28T01:31:32.418Z,58.85
2022-08-28T01:34:01.978Z,58.77
2022-08-28T01:36:30.328Z,58.65
2022-08-28T01:39:05.003Z,58.67
2022-08-28T01:41:31.577Z,58.55
2022-08-28T01:43:58.168Z,58.61
2022-08-28T01:46:24.786Z,58.53
2022-08-28T01:48:51.389Z,58.60
2022-08-28T01:51:22.673Z,58.25
2022-08-28T01:53:51.977Z,58.23
2022-08-28T01:56:19.183Z,58.40
2022-08-28T01:58:48.083Z,58.40
2022-08-28T02:01:21.445Z,58.40
2022-08-28T02:03:49.447Z,58.33
2022-08-28T02:06:17.726Z,58.20
2022-08-28T02:08:44.837Z,58.31
2022-08-28T02:11:12.273Z,58.27
2022-08-28T02:13:40.227Z,58.22
2022-08-28T02:16:10.431Z,58.16
2022-08-28T02:18:38.043Z,58.16
2022-08-28T02:21:06.816Z,57.99
2022-08-28T02:23:33.712Z,58.15
2022-08-28T02:26:00.708Z,58.17
2022-08-28T02:28:27.902Z,58.24
2022-08-28T02:30:54.586Z,58.21
2022-08-28T02:33:21.186Z,58.05
2022-08-28T02:35:49.286Z,58.04
2022-08-28T02:38:17.179Z,58.13
2022-08-28T02:40:45.472Z,58.14
2022-08-28T02:43:11.966Z,58.45
2022-08-28T02:45:38.499Z,58.21
2022-08-28T02:48:05.371Z,58.03
2022-08-28T02:50:42.219Z,57.92
2022-08-28T02:53:08.730Z,57.78
2022-08-28T02:55:35.275Z,58.19
2022-08-28T02:58:01.816Z,58.38
2022-08-28T03:00:28.792Z,58.50
2022-08-28T03:02:55.401Z,58.49
2022-08-28T03:05:27.093Z,58.51
2022-08-28T03:07:54.047Z,58.53
2022-08-28T03:10:21.570Z,58.70
2022-08-28T03:12:48.136Z,58.69
2022-08-28T03:15:14.800Z,58.62
2022-08-28T03:17:41.937Z,58.59
2022-08-28T03:20:11.725Z,58.56
2022-08-28T03:22:58.090Z,58.65
2022-08-28T03:25:26.488Z,59.03
2022-08-28T03:27:54.071Z,59.01
2022-08-28T03:30:23.036Z,59.06
2022-08-28T03:32:50.602Z,59.05
2022-08-28T03:35:17.782Z,58.79
2022-08-28T03:37:44.432Z,58.91
2022-08-28T03:40:12.231Z,58.79
2022-08-28T03:42:38.874Z,58.68
2022-08-28T03:45:09.723Z,58.61
2022-08-28T03:47:41.768Z,58.70
2022-08-28T03:50:12.335Z,59.16
2022-08-28T03:52:40.864Z,59.64
2022-08-28T03:55:11.439Z,59.59
2022-08-28T03:57:38.886Z,59.53
2022-08-28T04:00:13.150Z,59.43
2022-08-28T04:02:44.258Z,59.15
2022-08-28T04:05:11.911Z,59.21
2022-08-28T04:07:40.020Z,59.08
2022-08-28T04:10:07.896Z,59.41
2022-08-28T04:12:35.446Z,59.56
2022-08-28T04:15:02.894Z,60.11
2022-08-28T04:17:29.765Z,59.97
2022-08-28T04:19:56.278Z,60.02
2022-08-28T04:22:22.921Z,59.97
2022-08-28T04:24:50.354Z,59.59
2022-08-28T04:27:16.852Z,59.65
2022-08-28T04:29:43.347Z,59.65
2022-08-28T04:32:09.970Z,59.81
2022-08-28T04:34:38.485Z,59.92
2022-08-28T04:37:05.433Z,59.98
2022-08-28T04:39:33.046Z,59.96
2022-08-28T04:42:00.366Z,60.26
2022-08-28T04:44:27.333Z,60.38
2022-08-28T04:46:54.393Z,60.37
2022-08-28T04:49:22.926Z,60.67
2022-08-28T04:51:52.515Z,60.46
2022-08-28T04:54:19.634Z,60.98
2022-08-28T04:56:46.678Z,60.92
2022-08-28T04:59:13.560Z,61.01
2022-08-28T05:01:42.561Z,61.10
2022-08-28T05:04:11.446Z,60.65
2022-08-28T05:06:46.015Z,60.63
2022-08-28T05:09:16.844Z,60.74
2022-08-28T05:11:44.198Z,60.90
2022-08-28T05:14:15.749Z,61.07
2022-08-28T05:16:47.571Z,61.05
2022-08-28T05:19:15.985Z,60.82
2022-08-28T05:21:42.622Z,60.79
2022-08-28T05:24:10.415Z,60.69
2022-08-28T05:26:38.908Z,60.67
2022-08-28T05:29:08.362Z,60.71
2022-08-28T05:31:35.520Z,60.72
2022-08-28T05:34:04.542Z,60.77
2022-08-28T05:36:36.726Z,60.78
2022-08-28T05:39:08.506Z,60.84
2022-08-28T05:41:36.655Z,60.97
2022-08-28T05:44:08.620Z,61.02
2022-08-28T05:46:39.574Z,60.66
2022-08-28T05:49:10.008Z,60.62
2022-08-28T05:51:40.843Z,60.75
2022-08-28T05:54:07.925Z,60.62
2022-08-28T05:56:39.222Z,60.36
2022-08-28T05:59:08.332Z,60.55
2022-08-28T06:01:41.434Z,60.81
2022-08-28T06:04:14.448Z,60.66
2022-08-28T06:06:42.615Z,60.55
2022-08-28T06:09:26.597Z,60.03
2022-08-28T06:11:58.827Z,59.60
2022-08-28T06:14:25.938Z,59.67
2022-08-28T06:16:55.706Z,59.39
2022-08-28T06:19:26.152Z,59.62
2022-08-28T06:22:00.212Z,59.48
2022-08-28T06:24:29.186Z,59.38
2022-08-28T06:26:58.487Z,59.86
2022-08-28T06:29:27.933Z,59.69
2022-08-28T06:31:58.927Z,59.73
2022-08-28T06:34:27.398Z,59.47
2022-08-28T06:36:54.720Z,59.56
2022-08-28T06:39:22.491Z,59.47
2022-08-28T06:41:49.156Z,59.12
2022-08-28T06:44:19.897Z,58.83
2022-08-28T06:46:53.937Z,58.61
2022-08-28T06:49:21.393Z,59.13
2022-08-28T06:51:47.955Z,59.37
2022-08-28T06:54:21.415Z,59.01
2022-08-28T06:56:49.447Z,58.63
2022-08-28T06:59:15.955Z,58.59
2022-08-28T07:01:42.570Z,58.07
2022-08-28T07:04:12.014Z,57.59
2022-08-28T07:06:43.095Z,57.57
2022-08-28T07:09:11.606Z,57.80
2022-08-28T07:11:39.237Z,58.07
2022-08-28T07:14:06.832Z,58.35
2022-08-28T07:16:40.128Z,58.75
2022-08-28T07:19:11.085Z,58.92
2022-08-28T07:21:44.554Z,57.78
2022-08-28T07:24:15.058Z,57.08
2022-08-28T07:26:44.274Z,57.08
2022-08-28T07:29:12.174Z,57.35
2022-08-28T07:31:44.585Z,57.32
2022-08-28T07:34:14.044Z,57.63
2022-08-28T07:36:42.351Z,57.52
2022-08-28T07:39:11.403Z,57.41
2022-08-28T07:41:42.321Z,57.26
2022-08-28T07:44:29.919Z,56.99
2022-08-28T07:46:59.676Z,56.85
2022-08-28T07:49:27.210Z,56.38
2022-08-28T07:51:54.390Z,56.56
2022-08-28T07:54:22.366Z,56.60
2022-08-28T07:56:49.691Z,56.68
2022-08-28T07:59:17.475Z,56.62
2022-08-28T08:01:48.449Z,55.91
2022-08-28T08:04:17.153Z,55.48
2022-08-28T08:06:44.944Z,55.18
2022-08-28T08:09:15.507Z,53.97
2022-08-28T08:11:42.884Z,53.96
2022-08-28T08:14:10.603Z,54.16
2022-08-28T08:16:41.557Z,53.98
2022-08-28T08:19:10.454Z,54.38
2022-08-28T08:21:37.935Z,53.96
2022-08-28T08:24:05.161Z,53.58
2022-08-28T08:26:34.066Z,53.75
2022-08-28T08:29:00.863Z,53.86
2022-08-28T08:31:35.568Z,53.87
2022-08-28T08:34:04.812Z,53.51
2022-08-28T08:36:34.540Z,53.64
2022-08-28T08:39:02.126Z,53.40
2022-08-28T08:41:48.231Z,52.00
2022-08-28T08:44:42.370Z,52.42
2022-08-28T08:47:38.223Z,52.46
2022-08-28T08:50:14.774Z,52.40
2022-08-28T08:53:06.599Z,52.29
2022-08-28T08:55:46.068Z,52.65
2022-08-28T08:58:25.572Z,52.92
2022-08-28T09:01:14.408Z,52.42
2022-08-28T09:03:53.842Z,52.28
2022-08-28T09:06:43.915Z,51.87
2022-08-28T09:09:57.460Z,51.69
2022-08-28T09:12:28.590Z,52.58
2022-08-28T09:15:09.694Z,52.35
2022-08-28T09:17:44.739Z,52.16
2022-08-28T09:20:16.101Z,52.05
2022-08-28T09:22:47.041Z,51.89
2022-08-28T09:25:55.386Z,51.34
2022-08-28T09:28:31.776Z,51.62
2022-08-28T09:31:13.285Z,51.55
2022-08-28T09:33:45.606Z,51.92
2022-08-28T09:36:36.756Z,51.14
2022-08-28T09:39:11.193Z,51.34
2022-08-28T09:42:04.619Z,50.35
2022-08-28T09:44:31.632Z,50.96
2022-08-28T09:46:59.270Z,50.92
2022-08-28T09:49:30.492Z,50.18
2022-08-28T09:52:01.617Z,49.78
2022-08-28T09:54:40.204Z,49.46
2022-08-28T09:57:07.949Z,49.61
2022-08-28T09:59:34.446Z,49.31
2022-08-28T10:02:37.467Z,48.63
2022-08-28T10:05:16.217Z,48.20
2022-08-28T10:07:56.804Z,47.69
2022-08-28T10:10:50.275Z,46.81
2022-08-28T10:13:41.060Z,47.41
2022-08-28T10:16:52.926Z,47.42
2022-08-28T10:19:46.307Z,47.51
2022-08-28T10:22:51.961Z,46.93
2022-08-28T10:26:06.790Z,47.31
2022-08-28T10:28:56.536Z,47.91
2022-08-28T10:31:50.914Z,47.46
2022-08-28T10:35:01.562Z,47.17
2022-08-28T10:37:49.434Z,46.34
2022-08-28T10:40:30.490Z,46.76
2022-08-28T10:43:06.049Z,46.56
2022-08-28T10:45:34.922Z,45.69
2022-08-28T10:48:17.330Z,44.87
2022-08-28T10:50:50.973Z,45.13
2022-08-28T10:53:34.537Z,45.29
2022-08-28T10:56:35.894Z,44.76
2022-08-28T10:59:02.675Z,44.69
2022-08-28T11:01:44.669Z,43.13
2022-08-28T11:04:25.355Z,43.50
2022-08-28T11:07:14.114Z,42.93
2022-08-28T11:09:48.839Z,42.57
2022-08-28T11:12:19.569Z,42.82
2022-08-28T11:14:50.949Z,43.25
2022-08-28T11:17:27.572Z,42.48
2022-08-28T11:20:09.418Z,42.76
2022-08-28T11:22:49.963Z,42.17
2022-08-28T11:25:32.568Z,42.55
2022-08-28T11:28:17.699Z,41.98
2022-08-28T11:30:58.842Z,42.64
2022-08-28T11:33:41.993Z,42.46
2022-08-28T11:36:33.256Z,41.18
2022-08-28T11:39:20.673Z,40.88
2022-08-28T11:42:35.553Z,40.24
2022-08-28T11:45:02.571Z,41.18
2022-08-28T11:47:45.873Z,40.56
2022-08-28T11:50:26.135Z,39.92
2022-08-28T11:53:56.040Z,40.15
2022-08-28T11:56:48.210Z,40.39
2022-08-28T11:59:39.306Z,39.26
2022-08-28T12:02:39.951Z,39.21
2022-08-28T12:05:17.669Z,39.13
2022-08-28T12:07:49.999Z,39.31
2022-08-28T12:10:22.570Z,36.69
2022-08-28T12:12:54.055Z,36.62
2022-08-28T12:15:33.361Z,36.42
2022-08-28T12:18:35.630Z,37.03
2022-08-28T12:21:16.315Z,37.52
2022-08-28T12:24:17.147Z,37.11
2022-08-28T12:26:53.211Z,37.86
2022-08-28T12:29:37.469Z,37.56
2022-08-28T12:32:16.265Z,37.00
2022-08-28T12:34:57.673Z,37.58
2022-08-28T12:37:57.215Z,37.52
2022-08-28T12:40:29.488Z,38.04
2022-08-28T12:43:10.117Z,37.95
2022-08-28T12:45:48.045Z,38.54
2022-08-28T12:48:33.283Z,38.76
2022-08-28T12:51:07.799Z,38.51
2022-08-28T12:53:42.407Z,38.30
2022-08-28T12:56:13.324Z,38.43
2022-08-28T12:58:41.998Z,38.13
2022-08-28T13:01:23.486Z,37.33
2022-08-28T13:04:02.690Z,37.56
2022-08-28T13:06:36.558Z,37.13
2022-08-28T13:09:18.664Z,36.28
2022-08-28T13:11:49.805Z,37.05
2022-08-28T13:14:46.291Z,36.77
2022-08-28T13:17:15.318Z,37.27
2022-08-28T13:19:42.451Z,37.25
2022-08-28T13:22:40.542Z,37.04
2022-08-28T13:25:08.457Z,37.39
2022-08-28T13:27:36.155Z,37.10
2022-08-28T13:30:19.916Z,37.13
2022-08-28T13:33:20.212Z,36.52
2022-08-28T13:35:46.799Z,37.51
2022-08-28T13:38:19.307Z,37.62
2022-08-28T13:41:02.083Z,37.36
2022-08-28T13:43:45.013Z,36.91
2022-08-28T13:46:11.694Z,37.34
2022-08-28T13:48:39.281Z,36.87
2022-08-28T13:51:12.045Z,36.98
2022-08-28T13:53:46.653Z,36.47
2022-08-28T13:56:13.426Z,35.97
2022-08-28T13:58:39.934Z,35.45
2022-08-28T14:01:06.975Z,35.56
2022-08-28T14:03:36.323Z,36.08
2022-08-28T14:06:16.832Z,36.07
2022-08-28T14:08:45.707Z,35.32
2022-08-28T14:11:15.219Z,35.22
2022-08-28T14:13:47.089Z,35.72
2022-08-28T14:16:24.807Z,35.90
2022-08-28T14:18:53.190Z,35.55
2022-08-28T14:21:20.914Z,35.35
2022-08-28T14:23:47.406Z,35.31
2022-08-28T14:26:13.966Z,35.17
2022-08-28T14:28:40.467Z,35.16
2022-08-28T14:31:11.023Z,35.36
2022-08-28T14:33:40.455Z,35.60
2022-08-28T14:36:18.691Z,35.39
2022-08-28T14:38:45.271Z,36.00
2022-08-28T14:41:12.261Z,35.62
2022-08-28T14:43:38.874Z,35.79
2022-08-28T14:46:10.971Z,36.08
2022-08-28T14:48:38.106Z,35.94
2022-08-28T14:51:04.704Z,35.97
2022-08-28T14:53:31.237Z,36.25
2022-08-28T14:55:57.793Z,36.43
2022-08-28T14:58:24.436Z,36.33
2022-08-28T15:00:52.729Z,36.21
2022-08-28T15:03:20.722Z,35.82
2022-08-28T15:05:47.637Z,35.45
2022-08-28T15:08:17.435Z,35.25
2022-08-28T15:10:45.142Z,35.14
2022-08-28T15:13:12.719Z,34.88
2022-08-28T15:15:42.091Z,34.79
2022-08-28T15:18:10.668Z,34.89
2022-08-28T15:20:45.304Z,34.36
2022-08-28T15:23:14.662Z,34.61
2022-08-28T15:25:41.588Z,34.70
2022-08-28T15:28:08.665Z,34.57
2022-08-28T15:30:35.600Z,34.98
2022-08-28T15:33:02.313Z,34.70
2022-08-28T15:35:28.893Z,34.74
2022-08-28T15:37:55.425Z,34.80
2022-08-28T15:40:40.842Z,34.56
2022-08-28T15:43:07.489Z,34.38
2022-08-28T15:45:41.809Z,34.35
2022-08-28T15:48:09.715Z,34.72
2022-08-28T15:50:37.254Z,34.86
2022-08-28T15:53:06.150Z,34.90
2022-08-28T15:55:33.928Z,34.70
2022-08-28T15:58:03.438Z,35.03
2022-08-28T16:00:30.262Z,35.27
2022-08-28T16:02:59.878Z,35.52
2022-08-28T16:05:39.740Z,35.49
2022-08-28T16:08:09.611Z,35.85
2022-08-28T16:10:36.629Z,35.85
2022-08-28T16:13:04.601Z,35.68
2022-08-28T16:15:31.240Z,35.58
2022-08-28T16:17:57.784Z,35.73
2022-08-28T16:20:25.259Z,35.33
2022-08-28T16:22:52.880Z,35.57
2022-08-28T16:25:19.574Z,35.88
2022-08-28T16:27:46.088Z,36.06
2022-08-28T16:30:15.856Z,35.49
2022-08-28T16:32:46.886Z,35.75
2022-08-28T16:35:15.671Z,35.82
2022-08-28T16:37:43.344Z,36.38
2022-08-28T16:40:11.781Z,36.33
2022-08-28T16:42:41.988Z,36.21
2022-08-28T16:45:17.857Z,36.21
2022-08-28T16:47:44.408Z,36.52
2022-08-28T16:50:14.007Z,35.64
2022-08-28T16:52:41.294Z,35.70
2022-08-28T16:55:10.551Z,35.80
2022-08-28T16:57:37.919Z,35.85
2022-08-28T17:00:11.705Z,36.25
2022-08-28T17:02:40.952Z,36.63
2022-08-28T17:05:08.291Z,36.84
2022-08-28T17:07:35.218Z,36.25
2022-08-28T17:10:04.798Z,36.35
2022-08-28T17:12:31.322Z,36.54
2022-08-28T17:14:57.991Z,36.56
2022-08-28T17:17:24.656Z,36.47
2022-08-28T17:19:51.208Z,36.65
2022-08-28T17:22:32.691Z,36.77
2022-08-28T17:25:03.534Z,36.83
2022-08-28T17:27:32.076Z,36.98
2022-08-28T17:30:01.222Z,37.08
2022-08-28T17:32:28.927Z,37.06
2022-08-28T17:34:55.487Z,36.89
2022-08-28T17:37:23.658Z,37.06
2022-08-28T17:39:50.697Z,37.44
2022-08-28T17:42:17.262Z,37.31
2022-08-28T17:44:43.940Z,37.59
2022-08-28T17:47:11.823Z,37.47
2022-08-28T17:49:39.514Z,37.66
2022-08-28T17:52:06.364Z,37.68
2022-08-28T17:54:33.231Z,37.85
2022-08-28T17:56:59.768Z,37.90
2022-08-28T17:59:27.754Z,37.83
2022-08-28T18:01:54.882Z,38.30
2022-08-28T18:04:24.624Z,38.24
2022-08-28T18:06:54.320Z,38.54
2022-08-28T18:09:23.440Z,38.61
2022-08-28T18:11:50.814Z,38.57
2022-08-28T18:14:17.887Z,38.71
2022-08-28T18:16:44.876Z,38.72
2022-08-28T18:19:11.905Z,39.25
2022-08-28T18:21:39.836Z,39.14
2022-08-28T18:24:07.604Z,39.20
2022-08-28T18:26:34.478Z,39.63
2022-08-28T18:29:01.087Z,40.00
2022-08-28T18:31:27.694Z,39.83
2022-08-28T18:33:54.324Z,40.26
2022-08-28T18:36:22.976Z,40.57
2022-08-28T18:38:51.013Z,41.18
2022-08-28T18:41:20.014Z,41.46
2022-08-28T18:43:47.598Z,41.78
2022-08-28T18:46:14.796Z,42.03
2022-08-28T18:48:42.199Z,42.23
2022-08-28T18:51:11.650Z,42.46
2022-08-28T18:53:38.842Z,42.57
2022-08-28T18:56:08.904Z,42.92
2022-08-28T18:58:37.126Z,43.16
2022-08-28T19:01:03.770Z,43.18
2022-08-28T19:03:31.026Z,43.16
2022-08-28T19:05:57.649Z,43.49
2022-08-28T19:08:25.372Z,43.74
2022-08-28T19:10:52.415Z,43.76
2022-08-28T19:13:19.499Z,44.15
2022-08-28T19:15:52.457Z,44.41
2022-08-28T19:18:20.077Z,44.69
2022-08-28T19:20:47.414Z,45.08
2022-08-28T19:23:17.602Z,45.30
2022-08-28T19:25:45.563Z,45.54
2022-08-28T19:28:12.151Z,45.46
2022-08-28T19:30:38.782Z,45.40
2022-08-28T19:33:05.887Z,45.76
2022-08-28T19:35:33.719Z,45.73
2022-08-28T19:38:00.426Z,45.71
2022-08-28T19:40:27.483Z,45.50
2022-08-28T19:42:54.269Z,45.52
2022-08-28T19:45:21.286Z,45.83
2022-08-28T19:47:48.195Z,46.09
2022-08-28T19:50:16.003Z,46.08
2022-08-28T19:52:44.827Z,46.00
2022-08-28T19:55:24.997Z,46.42
2022-08-28T19:57:52.052Z,46.21
2022-08-28T20:00:28.095Z,46.17
2022-08-28T20:02:55.376Z,46.38
2022-08-28T20:05:22.991Z,46.89
2022-08-28T20:07:50.798Z,46.98
2022-08-28T20:10:18.363Z,46.84
2022-08-28T20:12:48.667Z,46.93
2022-08-28T20:15:18.429Z,47.05
2022-08-28T20:17:50.004Z,47.31
2022-08-28T20:20:23.771Z,47.65
2022-08-28T20:22:54.076Z,48.73
2022-08-28T20:25:21.663Z,48.12
2022-08-28T20:27:48.216Z,48.19
2022-08-28T20:30:14.919Z,48.37
2022-08-28T20:32:41.607Z,48.16
2022-08-28T20:35:11.971Z,48.40
2022-08-28T20:37:45.323Z,48.90
2022-08-28T20:40:17.051Z,48.83
2022-08-28T20:42:44.636Z,48.86
2022-08-28T20:45:13.269Z,48.67
2022-08-28T20:47:39.765Z,48.68
2022-08-28T20:50:07.287Z,48.71
2022-08-28T20:52:33.815Z,49.28
2022-08-28T20:55:00.597Z,49.09
2022-08-28T20:57:27.393Z,48.97
2022-08-28T20:59:54.176Z,48.99
2022-08-28T21:02:24.925Z,49.19
2022-08-28T21:04:52.359Z,49.32
2022-08-28T21:07:23.051Z,49.46
2022-08-28T21:10:04.168Z,49.96
2022-08-28T21:12:33.761Z,50.14
2022-08-28T21:15:00.468Z,50.61
2022-08-28T21:17:30.201Z,50.80
2022-08-28T21:20:01.315Z,51.24
2022-08-28T21:22:31.287Z,51.50
2022-08-28T21:24:57.879Z,51.38
2022-08-28T21:27:24.791Z,50.88
2022-08-28T21:29:54.433Z,51.11
2022-08-28T21:32:20.967Z,51.25
2022-08-28T21:34:47.466Z,51.19
2022-08-28T21:37:15.345Z,51.26
2022-08-28T21:39:41.876Z,51.71
2022-08-28T21:42:08.459Z,51.66
2022-08-28T21:44:34.968Z,51.54
2022-08-28T21:47:01.467Z,52.62
2022-08-28T21:49:28.008Z,52.63
2022-08-28T21:51:54.720Z,52.27
2022-08-28T21:54:22.990Z,52.25
2022-08-28T21:56:58.738Z,52.04
2022-08-28T21:59:30.278Z,51.97
2022-08-28T22:02:01.167Z,52.14
2022-08-28T22:04:27.799Z,52.16
2022-08-28T22:06:54.301Z,51.84
2022-08-28T22:09:20.814Z,51.96
2022-08-28T22:11:47.384Z,52.06
2022-08-28T22:14:13.963Z,52.48
2022-08-28T22:16:40.521Z,53.18
2022-08-28T22:19:07.041Z,53.42
2022-08-28T22:21:52.381Z,53.22
2022-08-28T22:24:18.981Z,53.31
2022-08-28T22:26:45.802Z,53.45
2022-08-28T22:29:12.649Z,53.85
2022-08-28T22:31:45.503Z,53.83
2022-08-28T22:34:13.048Z,53.69
2022-08-28T22:36:39.867Z,53.83
2022-08-28T22:39:06.431Z,54.37
2022-08-28T22:41:33.159Z,54.54
2022-08-28T22:44:00.167Z,54.80
2022-08-28T22:46:27.803Z,55.10
2022-08-28T22:48:54.559Z,54.86
2022-08-28T22:51:21.344Z,55.17
2022-08-28T22:53:48.550Z,55.05
2022-08-28T22:56:17.166Z,55.04
2022-08-28T22:58:44.371Z,54.58
2022-08-28T23:01:20.506Z,54.70
2022-08-28T23:03:47.754Z,55.00
2022-08-28T23:06:14.529Z,55.21
2022-08-28T23:08:41.310Z,55.18
2022-08-28T23:11:09.006Z,55.22
2022-08-28T23:13:35.923Z,55.74
2022-08-28T23:16:03.439Z,55.50
2022-08-28T23:18:41.501Z,55.74
2022-08-28T23:21:23.668Z,56.10
2022-08-28T23:23:52.869Z,56.04
2022-08-28T23:26:19.547Z,55.47
2022-08-28T23:28:46.452Z,55.98
2022-08-28T23:31:13.151Z,56.04
2022-08-28T23:33:39.819Z,56.14
2022-08-28T23:36:06.745Z,55.53
2022-08-28T23:38:42.871Z,55.43
2022-08-28T23:41:11.217Z,55.39
2022-08-28T23:43:38.432Z,56.01
2022-08-28T23:46:06.435Z,56.74
2022-08-28T23:48:33.275Z,57.23
2022-08-28T23:51:02.108Z,57.04
2022-08-28T23:53:29.309Z,56.82
2022-08-28T23:55:57.353Z,56.48
2022-08-28T23:58:28.478Z,57.13
